sensor_id;sensor_type;location;lat;lon;timestamp;P1;durP1;ratioP1;P2;durP2;ratioP2
15669;SDS011;18524;45.190;5.732;2023-05-07T00:00:28;2.23;;;1.50;;
15669;SDS011;18524;45.190;5.732;2023-05-07T00:05:18;2.47;;;1.73;;
15669;SDS011;18524;45.190;5.732;2023-05-07T00:10:09;2.20;;;1.63;;
15669;SDS011;18524;45.190;5.732;2023-05-07T00:15:02;2.87;;;1.87;;
15669;SDS011;18524;45.190;5.732;2023-05-07T00:19:53;1.90;;;1.67;;
15669;SDS011;18524;45.190;5.732;2023-05-07T00:24:44;2.03;;;1.50;;
15669;SDS011;18524;45.190;5.732;2023-05-07T00:29:34;2.10;;;1.47;;
15669;SDS011;18524;45.190;5.732;2023-05-07T00:34:24;3.30;;;1.40;;
15669;SDS011;18524;45.190;5.732;2023-05-07T00:39:15;2.87;;;1.57;;
15669;SDS011;18524;45.190;5.732;2023-05-07T00:44:05;1.90;;;1.50;;
15669;SDS011;18524;45.190;5.732;2023-05-07T00:48:56;2.53;;;1.60;;
15669;SDS011;18524;45.190;5.732;2023-05-07T00:53:47;1.63;;;1.47;;
15669;SDS011;18524;45.190;5.732;2023-05-07T00:58:38;2.17;;;1.50;;
15669;SDS011;18524;45.190;5.732;2023-05-07T01:03:28;2.37;;;1.70;;
15669;SDS011;18524;45.190;5.732;2023-05-07T01:08:19;5.77;;;1.53;;
15669;SDS011;18524;45.190;5.732;2023-05-07T01:13:10;2.07;;;1.60;;
15669;SDS011;18524;45.190;5.732;2023-05-07T01:18:02;2.43;;;1.67;;
15669;SDS011;18524;45.190;5.732;2023-05-07T01:22:53;2.13;;;1.63;;
15669;SDS011;18524;45.190;5.732;2023-05-07T01:27:44;3.83;;;1.80;;
15669;SDS011;18524;45.190;5.732;2023-05-07T01:32:40;3.60;;;1.70;;
15669;SDS011;18524;45.190;5.732;2023-05-07T01:37:35;1.97;;;1.57;;
15669;SDS011;18524;45.190;5.732;2023-05-07T01:42:26;2.30;;;1.80;;
15669;SDS011;18524;45.190;5.732;2023-05-07T01:47:16;2.27;;;1.70;;
15669;SDS011;18524;45.190;5.732;2023-05-07T01:52:08;1.63;;;1.53;;
15669;SDS011;18524;45.190;5.732;2023-05-07T01:56:59;3.67;;;1.80;;
15669;SDS011;18524;45.190;5.732;2023-05-07T02:01:50;3.67;;;1.70;;
15669;SDS011;18524;45.190;5.732;2023-05-07T02:06:40;2.37;;;2.03;;
15669;SDS011;18524;45.190;5.732;2023-05-07T02:11:30;3.23;;;1.80;;
15669;SDS011;18524;45.190;5.732;2023-05-07T02:16:21;1.60;;;1.50;;
15669;SDS011;18524;45.190;5.732;2023-05-07T02:21:13;2.63;;;1.70;;
15669;SDS011;18524;45.190;5.732;2023-05-07T02:26:04;2.20;;;1.60;;
15669;SDS011;18524;45.190;5.732;2023-05-07T02:30:54;3.43;;;1.80;;
15669;SDS011;18524;45.190;5.732;2023-05-07T02:35:45;4.63;;;1.87;;
15669;SDS011;18524;45.190;5.732;2023-05-07T02:40:35;3.17;;;2.20;;
15669;SDS011;18524;45.190;5.732;2023-05-07T02:45:28;2.43;;;2.00;;
15669;SDS011;18524;45.190;5.732;2023-05-07T02:50:18;2.30;;;2.10;;
15669;SDS011;18524;45.190;5.732;2023-05-07T02:55:09;3.17;;;2.20;;
15669;SDS011;18524;45.190;5.732;2023-05-07T02:59:59;4.77;;;2.10;;
15669;SDS011;18524;45.190;5.732;2023-05-07T03:05:00;2.00;;;1.80;;
15669;SDS011;18524;45.190;5.732;2023-05-07T03:09:51;3.97;;;1.60;;
15669;SDS011;18524;45.190;5.732;2023-05-07T03:14:42;3.50;;;2.03;;
15669;SDS011;18524;45.190;5.732;2023-05-07T03:19:32;2.30;;;1.87;;
15669;SDS011;18524;45.190;5.732;2023-05-07T03:24:22;2.83;;;2.00;;
15669;SDS011;18524;45.190;5.732;2023-05-07T03:29:13;2.87;;;2.00;;
15669;SDS011;18524;45.190;5.732;2023-05-07T03:34:03;2.13;;;1.90;;
15669;SDS011;18524;45.190;5.732;2023-05-07T03:38:54;2.93;;;2.30;;
15669;SDS011;18524;45.190;5.732;2023-05-07T03:43:44;2.97;;;2.50;;
15669;SDS011;18524;45.190;5.732;2023-05-07T03:48:35;8.27;;;2.70;;
15669;SDS011;18524;45.190;5.732;2023-05-07T03:53:25;2.97;;;2.67;;
15669;SDS011;18524;45.190;5.732;2023-05-07T03:58:15;2.77;;;2.17;;
15669;SDS011;18524;45.190;5.732;2023-05-07T04:03:06;3.77;;;2.70;;
15669;SDS011;18524;45.190;5.732;2023-05-07T04:08:00;3.50;;;2.30;;
15669;SDS011;18524;45.190;5.732;2023-05-07T04:12:51;3.43;;;2.50;;
15669;SDS011;18524;45.190;5.732;2023-05-07T04:17:41;2.67;;;2.40;;
15669;SDS011;18524;45.190;5.732;2023-05-07T04:22:31;3.03;;;2.70;;
15669;SDS011;18524;45.190;5.732;2023-05-07T04:27:22;2.67;;;2.47;;
15669;SDS011;18524;45.190;5.732;2023-05-07T04:32:12;2.90;;;2.70;;
15669;SDS011;18524;45.190;5.732;2023-05-07T04:37:03;3.90;;;2.60;;
15669;SDS011;18524;45.190;5.732;2023-05-07T04:41:53;3.30;;;2.57;;
15669;SDS011;18524;45.190;5.732;2023-05-07T04:46:44;3.97;;;2.60;;
15669;SDS011;18524;45.190;5.732;2023-05-07T04:51:34;3.47;;;2.70;;
15669;SDS011;18524;45.190;5.732;2023-05-07T04:56:27;4.20;;;2.80;;
15669;SDS011;18524;45.190;5.732;2023-05-07T05:01:19;3.20;;;2.80;;
15669;SDS011;18524;45.190;5.732;2023-05-07T05:06:09;5.40;;;3.40;;
15669;SDS011;18524;45.190;5.732;2023-05-07T05:11:00;4.73;;;3.40;;
15669;SDS011;18524;45.190;5.732;2023-05-07T05:15:52;3.47;;;3.17;;
15669;SDS011;18524;45.190;5.732;2023-05-07T05:20:42;3.60;;;3.30;;
15669;SDS011;18524;45.190;5.732;2023-05-07T05:25:32;4.27;;;3.80;;
15669;SDS011;18524;45.190;5.732;2023-05-07T05:30:23;3.50;;;3.20;;
15669;SDS011;18524;45.190;5.732;2023-05-07T05:35:13;4.83;;;3.20;;
15669;SDS011;18524;45.190;5.732;2023-05-07T05:40:04;5.63;;;3.53;;
15669;SDS011;18524;45.190;5.732;2023-05-07T05:44:54;4.33;;;3.80;;
15669;SDS011;18524;45.190;5.732;2023-05-07T05:49:45;3.70;;;3.40;;
15669;SDS011;18524;45.190;5.732;2023-05-07T05:54:35;3.60;;;3.30;;
15669;SDS011;18524;45.190;5.732;2023-05-07T05:59:26;3.10;;;2.90;;
15669;SDS011;18524;45.190;5.732;2023-05-07T06:04:16;6.40;;;3.10;;
15669;SDS011;18524;45.190;5.732;2023-05-07T06:09:07;9.17;;;4.73;;
15669;SDS011;18524;45.190;5.732;2023-05-07T06:13:57;6.10;;;3.23;;
15669;SDS011;18524;45.190;5.732;2023-05-07T06:18:47;4.90;;;3.37;;
15669;SDS011;18524;45.190;5.732;2023-05-07T06:23:38;4.33;;;3.00;;
15669;SDS011;18524;45.190;5.732;2023-05-07T06:28:28;6.30;;;3.30;;
15669;SDS011;18524;45.190;5.732;2023-05-07T06:33:20;4.47;;;3.00;;
15669;SDS011;18524;45.190;5.732;2023-05-07T06:38:11;4.33;;;2.50;;
15669;SDS011;18524;45.190;5.732;2023-05-07T06:43:02;4.37;;;2.60;;
15669;SDS011;18524;45.190;5.732;2023-05-07T06:47:52;2.90;;;2.43;;
15669;SDS011;18524;45.190;5.732;2023-05-07T06:52:43;3.57;;;3.00;;
15669;SDS011;18524;45.190;5.732;2023-05-07T06:57:33;4.80;;;3.00;;
15669;SDS011;18524;45.190;5.732;2023-05-07T07:02:23;2.77;;;2.40;;
15669;SDS011;18524;45.190;5.732;2023-05-07T07:07:14;3.90;;;2.50;;
15669;SDS011;18524;45.190;5.732;2023-05-07T07:12:04;3.90;;;2.30;;
15669;SDS011;18524;45.190;5.732;2023-05-07T07:16:55;3.10;;;2.63;;
15669;SDS011;18524;45.190;5.732;2023-05-07T07:21:45;3.13;;;2.70;;
15669;SDS011;18524;45.190;5.732;2023-05-07T07:26:35;2.70;;;2.50;;
15669;SDS011;18524;45.190;5.732;2023-05-07T07:31:26;3.37;;;2.17;;
15669;SDS011;18524;45.190;5.732;2023-05-07T07:36:16;4.90;;;2.40;;
15669;SDS011;18524;45.190;5.732;2023-05-07T07:41:10;3.17;;;2.40;;
15669;SDS011;18524;45.190;5.732;2023-05-07T07:46:01;2.97;;;2.10;;
15669;SDS011;18524;45.190;5.732;2023-05-07T07:50:52;3.63;;;2.30;;
15669;SDS011;18524;45.190;5.732;2023-05-07T07:55:42;4.23;;;2.80;;
15669;SDS011;18524;45.190;5.732;2023-05-07T08:00:33;4.50;;;3.50;;
15669;SDS011;18524;45.190;5.732;2023-05-07T08:05:24;3.57;;;2.70;;
15669;SDS011;18524;45.190;5.732;2023-05-07T08:10:15;4.13;;;2.90;;
15669;SDS011;18524;45.190;5.732;2023-05-07T08:15:11;3.33;;;2.70;;
15669;SDS011;18524;45.190;5.732;2023-05-07T08:20:01;4.37;;;2.40;;
15669;SDS011;18524;45.190;5.732;2023-05-07T08:24:51;2.83;;;2.50;;
15669;SDS011;18524;45.190;5.732;2023-05-07T08:29:43;3.30;;;2.67;;
15669;SDS011;18524;45.190;5.732;2023-05-07T08:34:37;3.60;;;2.70;;
15669;SDS011;18524;45.190;5.732;2023-05-07T08:39:27;3.20;;;2.90;;
15669;SDS011;18524;45.190;5.732;2023-05-07T08:44:18;3.03;;;2.83;;
15669;SDS011;18524;45.190;5.732;2023-05-07T08:49:12;3.37;;;3.03;;
15669;SDS011;18524;45.190;5.732;2023-05-07T08:54:02;4.63;;;3.23;;
15669;SDS011;18524;45.190;5.732;2023-05-07T08:58:54;3.23;;;3.00;;
15669;SDS011;18524;45.190;5.732;2023-05-07T09:03:49;2.93;;;2.73;;
15669;SDS011;18524;45.190;5.732;2023-05-07T09:08:40;3.37;;;3.07;;
15669;SDS011;18524;45.190;5.732;2023-05-07T09:13:30;5.07;;;3.40;;
15669;SDS011;18524;45.190;5.732;2023-05-07T09:18:20;3.33;;;3.13;;
15669;SDS011;18524;45.190;5.732;2023-05-07T09:23:11;3.93;;;3.40;;
15669;SDS011;18524;45.190;5.732;2023-05-07T09:28:02;4.00;;;3.60;;
15669;SDS011;18524;45.190;5.732;2023-05-07T09:32:53;4.77;;;4.30;;
15669;SDS011;18524;45.190;5.732;2023-05-07T09:37:44;5.13;;;3.83;;
15669;SDS011;18524;45.190;5.732;2023-05-07T09:42:35;4.90;;;4.40;;
15669;SDS011;18524;45.190;5.732;2023-05-07T09:47:26;4.63;;;4.07;;
15669;SDS011;18524;45.190;5.732;2023-05-07T09:52:22;4.13;;;3.40;;
15669;SDS011;18524;45.190;5.732;2023-05-07T09:57:13;4.70;;;3.80;;
15669;SDS011;18524;45.190;5.732;2023-05-07T10:02:05;4.03;;;3.10;;
15669;SDS011;18524;45.190;5.732;2023-05-07T10:06:56;3.70;;;3.40;;
15669;SDS011;18524;45.190;5.732;2023-05-07T10:11:48;3.20;;;2.83;;
15669;SDS011;18524;45.190;5.732;2023-05-07T10:16:40;5.23;;;4.60;;
15669;SDS011;18524;45.190;5.732;2023-05-07T10:21:31;5.83;;;5.23;;
15669;SDS011;18524;45.190;5.732;2023-05-07T10:26:27;5.10;;;4.60;;
15669;SDS011;18524;45.190;5.732;2023-05-07T10:36:31;7.50;;;5.10;;
15669;SDS011;18524;45.190;5.732;2023-05-07T10:41:23;4.93;;;4.10;;
15669;SDS011;18524;45.190;5.732;2023-05-07T10:46:15;5.80;;;5.20;;
15669;SDS011;18524;45.190;5.732;2023-05-07T10:51:19;4.90;;;3.93;;
15669;SDS011;18524;45.190;5.732;2023-05-07T11:01:08;3.07;;;2.57;;
15669;SDS011;18524;45.190;5.732;2023-05-07T11:11:03;6.57;;;4.60;;
15669;SDS011;18524;45.190;5.732;2023-05-07T11:15:54;6.33;;;4.30;;
15669;SDS011;18524;45.190;5.732;2023-05-07T11:20:52;5.10;;;4.60;;
15669;SDS011;18524;45.190;5.732;2023-05-07T11:25:43;6.37;;;4.17;;
15669;SDS011;18524;45.190;5.732;2023-05-07T11:30:34;5.40;;;4.53;;
15669;SDS011;18524;45.190;5.732;2023-05-07T11:35:25;4.97;;;4.43;;
15669;SDS011;18524;45.190;5.732;2023-05-07T11:40:16;5.00;;;4.10;;
15669;SDS011;18524;45.190;5.732;2023-05-07T11:45:06;4.80;;;4.40;;
15669;SDS011;18524;45.190;5.732;2023-05-07T11:50:01;4.10;;;3.60;;
15669;SDS011;18524;45.190;5.732;2023-05-07T11:54:54;6.93;;;5.57;;
15669;SDS011;18524;45.190;5.732;2023-05-07T11:59:46;4.67;;;4.03;;
15669;SDS011;18524;45.190;5.732;2023-05-07T12:04:39;5.07;;;3.50;;
15669;SDS011;18524;45.190;5.732;2023-05-07T12:09:32;4.63;;;4.20;;
15669;SDS011;18524;45.190;5.732;2023-05-07T12:14:26;4.93;;;4.23;;
15669;SDS011;18524;45.190;5.732;2023-05-07T12:19:17;3.20;;;2.90;;
15669;SDS011;18524;45.190;5.732;2023-05-07T12:24:08;3.07;;;2.77;;
15669;SDS011;18524;45.190;5.732;2023-05-07T12:28:58;4.43;;;3.00;;
15669;SDS011;18524;45.190;5.732;2023-05-07T12:33:49;2.80;;;2.40;;
15669;SDS011;18524;45.190;5.732;2023-05-07T12:38:39;2.87;;;2.50;;
15669;SDS011;18524;45.190;5.732;2023-05-07T12:43:30;2.20;;;2.00;;
15669;SDS011;18524;45.190;5.732;2023-05-07T12:48:21;2.43;;;2.23;;
15669;SDS011;18524;45.190;5.732;2023-05-07T12:53:12;2.87;;;2.50;;
15669;SDS011;18524;45.190;5.732;2023-05-07T12:58:03;2.30;;;2.07;;
15669;SDS011;18524;45.190;5.732;2023-05-07T13:02:53;2.30;;;2.10;;
15669;SDS011;18524;45.190;5.732;2023-05-07T13:07:52;1.97;;;1.80;;
15669;SDS011;18524;45.190;5.732;2023-05-07T13:12:43;1.97;;;1.87;;
15669;SDS011;18524;45.190;5.732;2023-05-07T13:17:34;2.83;;;2.63;;
15669;SDS011;18524;45.190;5.732;2023-05-07T13:22:24;2.47;;;2.20;;
15669;SDS011;18524;45.190;5.732;2023-05-07T13:27:15;2.97;;;2.20;;
15669;SDS011;18524;45.190;5.732;2023-05-07T13:32:05;2.20;;;2.10;;
15669;SDS011;18524;45.190;5.732;2023-05-07T13:36:55;2.20;;;2.00;;
15669;SDS011;18524;45.190;5.732;2023-05-07T13:41:46;1.93;;;1.83;;
15669;SDS011;18524;45.190;5.732;2023-05-07T13:46:36;2.30;;;2.10;;
15669;SDS011;18524;45.190;5.732;2023-05-07T13:51:27;2.20;;;2.00;;
15669;SDS011;18524;45.190;5.732;2023-05-07T13:56:18;2.03;;;1.93;;
15669;SDS011;18524;45.190;5.732;2023-05-07T14:01:08;2.33;;;2.00;;
15669;SDS011;18524;45.190;5.732;2023-05-07T14:05:59;2.00;;;1.87;;
15669;SDS011;18524;45.190;5.732;2023-05-07T14:10:51;2.13;;;1.83;;
15669;SDS011;18524;45.190;5.732;2023-05-07T14:15:41;2.00;;;1.80;;
15669;SDS011;18524;45.190;5.732;2023-05-07T14:20:36;2.30;;;2.10;;
15669;SDS011;18524;45.190;5.732;2023-05-07T14:25:27;2.53;;;2.10;;
15669;SDS011;18524;45.190;5.732;2023-05-07T14:30:18;2.07;;;1.97;;
15669;SDS011;18524;45.190;5.732;2023-05-07T14:35:08;2.27;;;2.07;;
15669;SDS011;18524;45.190;5.732;2023-05-07T14:39:58;1.87;;;1.77;;
15669;SDS011;18524;45.190;5.732;2023-05-07T14:44:49;2.50;;;2.30;;
15669;SDS011;18524;45.190;5.732;2023-05-07T14:49:39;3.60;;;2.00;;
15669;SDS011;18524;45.190;5.732;2023-05-07T14:54:30;2.47;;;2.10;;
15669;SDS011;18524;45.190;5.732;2023-05-07T14:59:23;2.10;;;2.00;;
15669;SDS011;18524;45.190;5.732;2023-05-07T15:04:15;2.13;;;1.93;;
15669;SDS011;18524;45.190;5.732;2023-05-07T15:09:05;2.23;;;2.07;;
15669;SDS011;18524;45.190;5.732;2023-05-07T15:13:55;2.27;;;1.80;;
15669;SDS011;18524;45.190;5.732;2023-05-07T15:18:46;1.60;;;1.50;;
15669;SDS011;18524;45.190;5.732;2023-05-07T15:23:36;1.73;;;1.53;;
15669;SDS011;18524;45.190;5.732;2023-05-07T15:28:28;2.77;;;2.00;;
15669;SDS011;18524;45.190;5.732;2023-05-07T15:33:18;1.70;;;1.60;;
15669;SDS011;18524;45.190;5.732;2023-05-07T15:38:09;1.80;;;1.70;;
15669;SDS011;18524;45.190;5.732;2023-05-07T15:42:59;1.83;;;1.73;;
15669;SDS011;18524;45.190;5.732;2023-05-07T15:47:50;1.70;;;1.60;;
15669;SDS011;18524;45.190;5.732;2023-05-07T15:52:40;1.80;;;1.70;;
15669;SDS011;18524;45.190;5.732;2023-05-07T15:57:31;2.30;;;1.80;;
15669;SDS011;18524;45.190;5.732;2023-05-07T16:02:21;1.80;;;1.47;;
15669;SDS011;18524;45.190;5.732;2023-05-07T16:07:11;1.37;;;1.30;;
15669;SDS011;18524;45.190;5.732;2023-05-07T16:12:02;1.70;;;1.60;;
15669;SDS011;18524;45.190;5.732;2023-05-07T16:16:53;1.60;;;1.50;;
15669;SDS011;18524;45.190;5.732;2023-05-07T16:21:43;1.87;;;1.60;;
15669;SDS011;18524;45.190;5.732;2023-05-07T16:26:33;1.30;;;1.20;;
15669;SDS011;18524;45.190;5.732;2023-05-07T16:31:24;1.07;;;1.00;;
15669;SDS011;18524;45.190;5.732;2023-05-07T16:36:14;1.40;;;1.30;;
15669;SDS011;18524;45.190;5.732;2023-05-07T16:41:05;1.10;;;1.10;;
15669;SDS011;18524;45.190;5.732;2023-05-07T16:45:55;1.87;;;1.57;;
15669;SDS011;18524;45.190;5.732;2023-05-07T16:50:46;1.20;;;1.13;;
15669;SDS011;18524;45.190;5.732;2023-05-07T16:55:36;1.30;;;1.20;;
15669;SDS011;18524;45.190;5.732;2023-05-07T17:00:30;1.50;;;1.40;;
15669;SDS011;18524;45.190;5.732;2023-05-07T17:05:20;2.00;;;1.80;;
15669;SDS011;18524;45.190;5.732;2023-05-07T17:10:11;2.00;;;1.70;;
15669;SDS011;18524;45.190;5.732;2023-05-07T17:15:01;1.60;;;1.50;;
15669;SDS011;18524;45.190;5.732;2023-05-07T17:19:53;1.47;;;1.37;;
15669;SDS011;18524;45.190;5.732;2023-05-07T17:24:43;1.90;;;1.70;;
15669;SDS011;18524;45.190;5.732;2023-05-07T17:29:34;4.80;;;4.27;;
15669;SDS011;18524;45.190;5.732;2023-05-07T17:34:24;5.63;;;5.13;;
15669;SDS011;18524;45.190;5.732;2023-05-07T17:39:15;4.90;;;4.50;;
15669;SDS011;18524;45.190;5.732;2023-05-07T17:44:05;4.33;;;3.93;;
15669;SDS011;18524;45.190;5.732;2023-05-07T17:48:56;4.50;;;4.20;;
15669;SDS011;18524;45.190;5.732;2023-05-07T17:53:46;4.80;;;4.00;;
15669;SDS011;18524;45.190;5.732;2023-05-07T17:58:37;4.07;;;3.60;;
15669;SDS011;18524;45.190;5.732;2023-05-07T18:03:28;3.63;;;3.33;;
15669;SDS011;18524;45.190;5.732;2023-05-07T18:08:20;4.07;;;3.70;;
15669;SDS011;18524;45.190;5.732;2023-05-07T18:13:10;4.00;;;3.70;;
15669;SDS011;18524;45.190;5.732;2023-05-07T18:18:01;3.83;;;3.40;;
15669;SDS011;18524;45.190;5.732;2023-05-07T18:22:51;3.57;;;3.03;;
15669;SDS011;18524;45.190;5.732;2023-05-07T18:27:41;2.97;;;2.77;;
15669;SDS011;18524;45.190;5.732;2023-05-07T18:32:32;3.17;;;2.57;;
15669;SDS011;18524;45.190;5.732;2023-05-07T18:37:25;3.00;;;1.93;;
15669;SDS011;18524;45.190;5.732;2023-05-07T18:42:16;2.23;;;2.03;;
15669;SDS011;18524;45.190;5.732;2023-05-07T18:47:22;2.97;;;2.63;;
15669;SDS011;18524;45.190;5.732;2023-05-07T18:52:15;2.60;;;2.40;;
15669;SDS011;18524;45.190;5.732;2023-05-07T18:57:07;4.20;;;2.87;;
15669;SDS011;18524;45.190;5.732;2023-05-07T19:01:57;2.30;;;2.17;;
15669;SDS011;18524;45.190;5.732;2023-05-07T19:06:47;2.00;;;1.90;;
15669;SDS011;18524;45.190;5.732;2023-05-07T19:11:41;2.00;;;1.90;;
15669;SDS011;18524;45.190;5.732;2023-05-07T19:16:31;1.50;;;1.40;;
15669;SDS011;18524;45.190;5.732;2023-05-07T19:21:22;2.10;;;1.90;;
15669;SDS011;18524;45.190;5.732;2023-05-07T19:26:12;1.77;;;1.67;;
15669;SDS011;18524;45.190;5.732;2023-05-07T19:31:03;0.90;;;0.90;;
15669;SDS011;18524;45.190;5.732;2023-05-07T19:35:54;1.63;;;1.00;;
15669;SDS011;18524;45.190;5.732;2023-05-07T19:40:47;0.80;;;0.80;;
15669;SDS011;18524;45.190;5.732;2023-05-07T19:45:37;0.70;;;0.70;;
15669;SDS011;18524;45.190;5.732;2023-05-07T19:50:31;1.20;;;1.10;;
15669;SDS011;18524;45.190;5.732;2023-05-07T19:55:22;2.53;;;1.10;;
15669;SDS011;18524;45.190;5.732;2023-05-07T20:00:12;1.10;;;1.00;;
15669;SDS011;18524;45.190;5.732;2023-05-07T20:05:03;1.10;;;0.70;;
15669;SDS011;18524;45.190;5.732;2023-05-07T20:09:54;0.70;;;0.70;;
15669;SDS011;18524;45.190;5.732;2023-05-07T20:14:44;1.43;;;0.80;;
15669;SDS011;18524;45.190;5.732;2023-05-07T20:19:34;1.00;;;0.70;;
15669;SDS011;18524;45.190;5.732;2023-05-07T20:24:25;0.83;;;0.83;;
15669;SDS011;18524;45.190;5.732;2023-05-07T20:29:15;3.33;;;0.93;;
15669;SDS011;18524;45.190;5.732;2023-05-07T20:34:06;0.80;;;0.80;;
15669;SDS011;18524;45.190;5.732;2023-05-07T20:38:57;0.90;;;0.90;;
15669;SDS011;18524;45.190;5.732;2023-05-07T20:43:47;0.87;;;0.70;;
15669;SDS011;18524;45.190;5.732;2023-05-07T20:48:40;1.40;;;1.00;;
15669;SDS011;18524;45.190;5.732;2023-05-07T20:53:36;1.30;;;0.80;;
15669;SDS011;18524;45.190;5.732;2023-05-07T20:58:26;1.63;;;1.23;;
15669;SDS011;18524;45.190;5.732;2023-05-07T21:03:17;2.70;;;1.30;;
15669;SDS011;18524;45.190;5.732;2023-05-07T21:08:07;2.10;;;1.63;;
15669;SDS011;18524;45.190;5.732;2023-05-07T21:12:58;2.03;;;1.83;;
15669;SDS011;18524;45.190;5.732;2023-05-07T21:17:48;1.67;;;1.57;;
15669;SDS011;18524;45.190;5.732;2023-05-07T21:22:39;1.90;;;1.60;;
15669;SDS011;18524;45.190;5.732;2023-05-07T21:27:29;2.83;;;1.80;;
15669;SDS011;18524;45.190;5.732;2023-05-07T21:32:20;2.40;;;1.80;;
15669;SDS011;18524;45.190;5.732;2023-05-07T21:37:10;3.37;;;1.73;;
15669;SDS011;18524;45.190;5.732;2023-05-07T21:42:00;2.20;;;1.60;;
15669;SDS011;18524;45.190;5.732;2023-05-07T21:46:51;1.83;;;1.33;;
15669;SDS011;18524;45.190;5.732;2023-05-07T21:51:42;2.40;;;1.70;;
15669;SDS011;18524;45.190;5.732;2023-05-07T21:56:32;2.70;;;2.30;;
15669;SDS011;18524;45.190;5.732;2023-05-07T22:01:23;2.30;;;2.10;;
15669;SDS011;18524;45.190;5.732;2023-05-07T22:06:14;2.60;;;1.70;;
15669;SDS011;18524;45.190;5.732;2023-05-07T22:11:10;2.10;;;2.00;;
15669;SDS011;18524;45.190;5.732;2023-05-07T22:16:00;1.90;;;1.47;;
15669;SDS011;18524;45.190;5.732;2023-05-07T22:20:51;2.13;;;1.50;;
15669;SDS011;18524;45.190;5.732;2023-05-07T22:25:41;1.83;;;1.73;;
15669;SDS011;18524;45.190;5.732;2023-05-07T22:30:32;1.83;;;1.50;;
15669;SDS011;18524;45.190;5.732;2023-05-07T22:35:22;1.97;;;1.80;;
15669;SDS011;18524;45.190;5.732;2023-05-07T22:40:12;1.80;;;1.70;;
15669;SDS011;18524;45.190;5.732;2023-05-07T22:45:03;1.60;;;1.50;;
15669;SDS011;18524;45.190;5.732;2023-05-07T22:49:53;1.80;;;1.30;;
15669;SDS011;18524;45.190;5.732;2023-05-07T22:54:44;2.07;;;1.93;;
15669;SDS011;18524;45.190;5.732;2023-05-07T22:59:34;2.07;;;1.90;;
15669;SDS011;18524;45.190;5.732;2023-05-07T23:04:25;1.43;;;1.33;;
15669;SDS011;18524;45.190;5.732;2023-05-07T23:09:15;1.60;;;1.50;;
15669;SDS011;18524;45.190;5.732;2023-05-07T23:14:06;1.70;;;1.60;;
15669;SDS011;18524;45.190;5.732;2023-05-07T23:18:56;2.80;;;1.80;;
15669;SDS011;18524;45.190;5.732;2023-05-07T23:23:47;2.53;;;1.57;;
15669;SDS011;18524;45.190;5.732;2023-05-07T23:28:39;1.67;;;1.57;;
15669;SDS011;18524;45.190;5.732;2023-05-07T23:33:29;2.03;;;1.70;;
15669;SDS011;18524;45.190;5.732;2023-05-07T23:38:19;2.00;;;1.73;;
15669;SDS011;18524;45.190;5.732;2023-05-07T23:43:10;2.10;;;1.93;;
15669;SDS011;18524;45.190;5.732;2023-05-07T23:48:00;1.83;;;1.73;;
15669;SDS011;18524;45.190;5.732;2023-05-07T23:52:50;1.80;;;1.70;;
15669;SDS011;18524;45.190;5.732;2023-05-07T23:57:41;2.87;;;1.77;;
